IBE24L LEVC-LEBB
Flight info
| Callsign | IBE24L |
|---|---|
| Flight time | N/A |
| Altitude | 32000 |
| Route | CENTA N733 BENED DCT CJN DCT RBO N867 DGO |
| Aircraft | A319/M-SDE3FGHIRWY/LB1 |
Departure
| Time | 2026-05-08 15:29 |
|---|---|
| Airport | Valencia Airport (LEVC) |
Arrival
| Time | N/A |
|---|---|
| Airport | Bilbao Airport (LEBB) |
| Time | Latitude | Longitude | Altitude | Speed | Heading |
|---|---|---|---|---|---|
| 2026-05-08 15:08 | 39.49073 | -0.47432 | 209 ft | 0 kts | 45° |
| 2026-05-08 15:18 | 39.49067 | -0.47439 | 195 ft | 2 kts | 45° |
| 2026-05-08 15:19 | 39.49058 | -0.47451 | 203 ft | 2 kts | 45° |
| 2026-05-08 15:19 | 39.49048 | -0.47464 | 209 ft | 2 kts | 45° |
| 2026-05-08 15:19 | 39.49039 | -0.47476 | 203 ft | 2 kts | 45° |
| 2026-05-08 15:19 | 39.49030 | -0.47488 | 200 ft | 2 kts | 31° |
| 2026-05-08 15:20 | 39.49018 | -0.47495 | 206 ft | 2 kts | 359° |
| 2026-05-08 15:20 | 39.49004 | -0.47493 | 206 ft | 2 kts | 301° |
| 2026-05-08 15:20 | 39.49003 | -0.47491 | 207 ft | 0 kts | 298° |
| 2026-05-08 15:22 | 39.49009 | -0.47504 | 203 ft | 4 kts | 298° |
| 2026-05-08 15:22 | 39.49022 | -0.47542 | 210 ft | 5 kts | 294° |
| 2026-05-08 15:23 | 39.49035 | -0.47580 | 205 ft | 5 kts | 294° |
| 2026-05-08 15:23 | 39.49049 | -0.47618 | 198 ft | 5 kts | 295° |
| 2026-05-08 15:23 | 39.49057 | -0.47677 | 199 ft | 8 kts | 260° |
| 2026-05-08 15:23 | 39.49041 | -0.47765 | 201 ft | 12 kts | 257° |
| 2026-05-08 15:24 | 39.49030 | -0.47889 | 203 ft | 16 kts | 285° |
| 2026-05-08 15:24 | 39.49082 | -0.48031 | 207 ft | 19 kts | 296° |
| 2026-05-08 15:24 | 39.49138 | -0.48180 | 210 ft | 17 kts | 296° |
| 2026-05-08 15:24 | 39.49187 | -0.48308 | 213 ft | 15 kts | 296° |
| 2026-05-08 15:25 | 39.49230 | -0.48424 | 216 ft | 13 kts | 296° |
| 2026-05-08 15:25 | 39.49271 | -0.48529 | 220 ft | 13 kts | 297° |
| 2026-05-08 15:25 | 39.49312 | -0.48635 | 222 ft | 14 kts | 297° |
| 2026-05-08 15:25 | 39.49360 | -0.48758 | 228 ft | 17 kts | 296° |
| 2026-05-08 15:26 | 39.49413 | -0.48897 | 222 ft | 18 kts | 296° |
| 2026-05-08 15:26 | 39.49472 | -0.49052 | 221 ft | 20 kts | 296° |
| 2026-05-08 15:26 | 39.49532 | -0.49206 | 226 ft | 18 kts | 297° |
| 2026-05-08 15:26 | 39.49585 | -0.49347 | 227 ft | 17 kts | 295° |
| 2026-05-08 15:27 | 39.49639 | -0.49492 | 230 ft | 19 kts | 296° |
| 2026-05-08 15:27 | 39.49702 | -0.49656 | 237 ft | 20 kts | 296° |
| 2026-05-08 15:27 | 39.49761 | -0.49811 | 239 ft | 18 kts | 296° |
| 2026-05-08 15:27 | 39.49800 | -0.49924 | 244 ft | 11 kts | 277° |
| 2026-05-08 15:28 | 39.49761 | -0.49977 | 246 ft | 5 kts | 204° |
| 2026-05-08 15:28 | 39.49731 | -0.49995 | 247 ft | 4 kts | 204° |
| 2026-05-08 15:28 | 39.49698 | -0.50014 | 247 ft | 7 kts | 204° |
| 2026-05-08 15:28 | 39.49633 | -0.50006 | 246 ft | 14 kts | 130° |
| 2026-05-08 15:29 | 39.49553 | -0.49795 | 239 ft | 54 kts | 115° |
| 2026-05-08 15:29 | 39.49277 | -0.49061 | 225 ft | 125 kts | 116° |
| 2026-05-08 15:29 | 39.48817 | -0.47855 | 395 ft | 160 kts | 114° |
| 2026-05-08 15:29 | 39.48295 | -0.46558 | 1012 ft | 165 kts | 115° |
| 2026-05-08 15:30 | 39.47748 | -0.45228 | 1629 ft | 172 kts | 116° |
| 2026-05-08 15:30 | 39.47130 | -0.43782 | 1978 ft | 196 kts | 122° |
| 2026-05-08 15:30 | 39.46281 | -0.42221 | 2257 ft | 228 kts | 127° |
| 2026-05-08 15:30 | 39.45233 | -0.40523 | 2800 ft | 251 kts | 129° |
| 2026-05-08 15:31 | 39.44104 | -0.38721 | 3640 ft | 261 kts | 129° |
| 2026-05-08 15:31 | 39.42954 | -0.36870 | 4595 ft | 267 kts | 129° |
| 2026-05-08 15:31 | 39.41788 | -0.34968 | 5524 ft | 273 kts | 129° |
| 2026-05-08 15:31 | 39.40596 | -0.33032 | 6473 ft | 277 kts | 134° |
| 2026-05-08 15:32 | 39.39065 | -0.31579 | 7270 ft | 279 kts | 161° |
| 2026-05-08 15:32 | 39.37170 | -0.31222 | 8161 ft | 277 kts | 188° |
| 2026-05-08 15:32 | 39.35373 | -0.32047 | 9034 ft | 276 kts | 217° |
| 2026-05-08 15:32 | 39.34041 | -0.33809 | 9967 ft | 275 kts | 235° |
| 2026-05-08 15:33 | 39.32950 | -0.35846 | 10804 ft | 280 kts | 239° |
| 2026-05-08 15:33 | 39.31972 | -0.38143 | 11131 ft | 303 kts | 245° |
| 2026-05-08 15:33 | 39.31168 | -0.40751 | 11481 ft | 322 kts | 252° |
| 2026-05-08 15:33 | 39.30595 | -0.43575 | 12182 ft | 328 kts | 258° |
| 2026-05-08 15:34 | 39.30277 | -0.46510 | 12987 ft | 331 kts | 264° |
| 2026-05-08 15:34 | 39.30242 | -0.49490 | 13802 ft | 335 kts | 270° |
| 2026-05-08 15:34 | 39.30507 | -0.52491 | 14509 ft | 339 kts | 277° |
| 2026-05-08 15:34 | 39.31081 | -0.55463 | 15238 ft | 344 kts | 284° |
| 2026-05-08 15:35 | 39.31962 | -0.58360 | 15953 ft | 350 kts | 290° |
| 2026-05-08 15:35 | 39.33154 | -0.61130 | 16645 ft | 356 kts | 298° |
| 2026-05-08 15:35 | 39.34661 | -0.63710 | 17345 ft | 365 kts | 306° |
| 2026-05-08 15:35 | 39.36551 | -0.65959 | 18036 ft | 375 kts | 316° |
| 2026-05-08 15:36 | 39.38659 | -0.67975 | 18662 ft | 378 kts | 317° |
| 2026-05-08 15:36 | 39.40790 | -0.70000 | 19255 ft | 382 kts | 317° |
| 2026-05-08 15:36 | 39.42939 | -0.72039 | 19846 ft | 385 kts | 317° |
| 2026-05-08 15:36 | 39.45104 | -0.74097 | 20434 ft | 388 kts | 317° |
| 2026-05-08 15:37 | 39.47283 | -0.76174 | 21019 ft | 391 kts | 316° |
| 2026-05-08 15:37 | 39.49479 | -0.78273 | 21575 ft | 394 kts | 316° |
| 2026-05-08 15:37 | 39.51696 | -0.80394 | 22072 ft | 398 kts | 316° |
| 2026-05-08 15:37 | 39.53938 | -0.82539 | 22645 ft | 401 kts | 316° |
| 2026-05-08 15:38 | 39.56194 | -0.84699 | 23133 ft | 405 kts | 316° |
| 2026-05-08 15:38 | 39.58465 | -0.86872 | 23668 ft | 407 kts | 316° |
| 2026-05-08 15:38 | 39.60745 | -0.89052 | 24121 ft | 409 kts | 316° |
| 2026-05-08 15:38 | 39.63017 | -0.91228 | 24557 ft | 411 kts | 316° |
| 2026-05-08 15:39 | 39.65320 | -0.93439 | 24987 ft | 413 kts | 316° |
| 2026-05-08 15:39 | 39.67633 | -0.95662 | 25366 ft | 414 kts | 316° |
| 2026-05-08 15:39 | 39.69806 | -0.98089 | 25777 ft | 408 kts | 307° |
| 2026-05-08 15:39 | 39.71606 | -1.00886 | 26198 ft | 402 kts | 298° |
| 2026-05-08 15:40 | 39.73056 | -1.03973 | 26619 ft | 399 kts | 293° |
| 2026-05-08 15:40 | 39.74429 | -1.07123 | 27051 ft | 400 kts | 293° |
| 2026-05-08 15:40 | 39.75802 | -1.10272 | 27478 ft | 402 kts | 293° |
| 2026-05-08 15:40 | 39.77184 | -1.13444 | 27891 ft | 404 kts | 293° |
| 2026-05-08 15:41 | 39.78571 | -1.16633 | 28288 ft | 406 kts | 292° |
| 2026-05-08 15:41 | 39.79962 | -1.19838 | 28703 ft | 408 kts | 292° |
| 2026-05-08 15:41 | 39.81361 | -1.23063 | 29074 ft | 411 kts | 293° |
| 2026-05-08 15:41 | 39.82766 | -1.26307 | 29433 ft | 413 kts | 292° |
| 2026-05-08 15:42 | 39.84177 | -1.29568 | 29779 ft | 415 kts | 293° |
| 2026-05-08 15:42 | 39.85592 | -1.32847 | 30107 ft | 417 kts | 293° |
| 2026-05-08 15:42 | 39.87012 | -1.36140 | 30406 ft | 418 kts | 293° |
| 2026-05-08 15:42 | 39.88443 | -1.39462 | 30744 ft | 419 kts | 292° |
| 2026-05-08 15:43 | 39.89851 | -1.42721 | 31184 ft | 416 kts | 293° |
| 2026-05-08 15:43 | 39.91270 | -1.45997 | 31635 ft | 414 kts | 292° |
| 2026-05-08 15:43 | 39.92683 | -1.49263 | 31910 ft | 413 kts | 292° |
| 2026-05-08 15:43 | 39.94087 | -1.52510 | 31968 ft | 407 kts | 292° |
| 2026-05-08 15:44 | 39.96847 | -1.58933 | 31963 ft | 401 kts | 292° |
| 2026-05-08 15:44 | 39.99539 | -1.65249 | 31966 ft | 401 kts | 292° |
| 2026-05-08 15:45 | 40.02253 | -1.71609 | 31975 ft | 402 kts | 292° |
| 2026-05-08 15:45 | 40.04984 | -1.78010 | 31963 ft | 404 kts | 292° |
| 2026-05-08 15:46 | 40.07721 | -1.84431 | 31959 ft | 405 kts | 292° |
| 2026-05-08 15:46 | 40.10450 | -1.90864 | 31957 ft | 404 kts | 292° |
| 2026-05-08 15:47 | 40.13173 | -1.97290 | 31980 ft | 404 kts | 292° |
| 2026-05-08 15:47 | 40.15886 | -2.03713 | 31965 ft | 403 kts | 292° |
| 2026-05-08 15:48 | 40.19978 | -2.13314 | 31954 ft | 403 kts | 292° |
| 2026-05-08 15:49 | 40.22702 | -2.19712 | 31939 ft | 402 kts | 292° |
| 2026-05-08 15:49 | 40.25395 | -2.26133 | 31935 ft | 403 kts | 292° |
| 2026-05-08 15:50 | 40.28091 | -2.32593 | 31939 ft | 404 kts | 292° |
| 2026-05-08 15:50 | 40.30772 | -2.39024 | 31931 ft | 405 kts | 292° |
| 2026-05-08 15:51 | 40.33476 | -2.45513 | 31925 ft | 406 kts | 291° |
| 2026-05-08 15:51 | 40.36176 | -2.52015 | 31919 ft | 406 kts | 292° |
| 2026-05-08 15:52 | 40.39650 | -2.58010 | 31924 ft | 419 kts | 304° |
| 2026-05-08 15:52 | 40.43580 | -2.63655 | 31928 ft | 419 kts | 304° |
| 2026-05-08 15:53 | 40.47508 | -2.69330 | 31951 ft | 419 kts | 304° |
| 2026-05-08 15:53 | 40.51427 | -2.75009 | 31938 ft | 420 kts | 304° |
| 2026-05-08 15:54 | 40.55347 | -2.80709 | 31931 ft | 420 kts | 304° |
| 2026-05-08 15:54 | 40.59267 | -2.86400 | 31931 ft | 420 kts | 304° |
| 2026-05-08 15:55 | 40.63190 | -2.92101 | 31927 ft | 420 kts | 304° |
| 2026-05-08 15:55 | 40.69051 | -3.00666 | 31925 ft | 420 kts | 304° |
| 2026-05-08 15:56 | 40.72937 | -3.06372 | 31955 ft | 420 kts | 304° |
| 2026-05-08 15:56 | 40.76848 | -3.12112 | 31938 ft | 420 kts | 304° |
| 2026-05-08 15:57 | 40.80786 | -3.17825 | 31925 ft | 424 kts | 308° |
| 2026-05-08 15:57 | 40.83127 | -3.20266 | 31923 ft | 437 kts | 320° |
| 2026-05-08 15:57 | 40.85901 | -3.22058 | 31917 ft | 451 kts | 333° |
| 2026-05-08 15:58 | 40.88989 | -3.23040 | 31931 ft | 464 kts | 346° |
| 2026-05-08 15:58 | 40.91144 | -3.23187 | 31933 ft | 472 kts | 355° |
| 2026-05-08 15:58 | 40.97777 | -3.21908 | 31923 ft | 480 kts | 4° |
| 2026-05-08 15:59 | 41.04325 | -3.20430 | 31919 ft | 481 kts | 3° |
| 2026-05-08 15:59 | 41.10929 | -3.18950 | 31936 ft | 481 kts | 4° |
| 2026-05-08 16:00 | 41.17530 | -3.17462 | 31927 ft | 481 kts | 4° |
| 2026-05-08 16:00 | 41.24124 | -3.15973 | 31918 ft | 481 kts | 4° |
| 2026-05-08 16:01 | 41.30732 | -3.14473 | 31928 ft | 481 kts | 4° |
| 2026-05-08 16:01 | 41.37333 | -3.12974 | 31925 ft | 481 kts | 4° |
| 2026-05-08 16:02 | 41.43941 | -3.11483 | 31918 ft | 481 kts | 4° |
| 2026-05-08 16:02 | 41.50538 | -3.09983 | 31909 ft | 480 kts | 4° |
| 2026-05-08 16:03 | 41.57125 | -3.08485 | 31932 ft | 480 kts | 4° |
| 2026-05-08 16:03 | 41.63659 | -3.07002 | 31927 ft | 479 kts | 4° |
| 2026-05-08 16:04 | 41.70228 | -3.05512 | 31917 ft | 479 kts | 4° |
| 2026-05-08 16:04 | 41.76784 | -3.04017 | 31927 ft | 477 kts | 5° |
| 2026-05-08 16:05 | 41.83323 | -3.02502 | 31929 ft | 476 kts | 5° |
| 2026-05-08 16:05 | 41.89848 | -3.00994 | 31928 ft | 475 kts | 5° |
| 2026-05-08 16:06 | 41.96363 | -2.99487 | 31939 ft | 475 kts | 5° |
| 2026-05-08 16:06 | 42.02876 | -2.97986 | 31932 ft | 475 kts | 5° |
| 2026-05-08 16:07 | 42.09385 | -2.96476 | 30955 ft | 478 kts | 4° |
| 2026-05-08 16:07 | 42.12663 | -2.95714 | 30240 ft | 476 kts | 4° |
| 2026-05-08 16:07 | 42.15922 | -2.94953 | 29441 ft | 474 kts | 4° |
| 2026-05-08 16:08 | 42.19168 | -2.94195 | 28700 ft | 471 kts | 4° |
| 2026-05-08 16:08 | 42.22388 | -2.93442 | 27972 ft | 468 kts | 4° |
| 2026-05-08 16:08 | 42.25594 | -2.92692 | 27241 ft | 464 kts | 4° |
| 2026-05-08 16:08 | 42.28719 | -2.91959 | 26548 ft | 460 kts | 5° |
| 2026-05-08 16:09 | 42.31860 | -2.91220 | 25862 ft | 457 kts | 5° |
| 2026-05-08 16:09 | 42.34986 | -2.90487 | 25172 ft | 455 kts | 5° |
| 2026-05-08 16:09 | 42.38134 | -2.89748 | 24483 ft | 451 kts | 7° |
| 2026-05-08 16:09 | 42.41181 | -2.89036 | 23800 ft | 449 kts | 8° |
| 2026-05-08 16:10 | 42.44241 | -2.88328 | 23136 ft | 445 kts | 7° |
| 2026-05-08 16:10 | 42.47300 | -2.87971 | 22526 ft | 437 kts | 360° |
| 2026-05-08 16:10 | 42.50315 | -2.87823 | 21974 ft | 431 kts | 0° |
| 2026-05-08 16:10 | 42.53293 | -2.87663 | 21431 ft | 426 kts | 0° |
| 2026-05-08 16:11 | 42.56236 | -2.87493 | 20925 ft | 421 kts | 1° |
| 2026-05-08 16:11 | 42.59152 | -2.87322 | 20413 ft | 418 kts | 1° |
| 2026-05-08 16:11 | 42.62045 | -2.87157 | 19935 ft | 415 kts | 1° |
| 2026-05-08 16:11 | 42.64911 | -2.86999 | 19452 ft | 411 kts | 1° |
| 2026-05-08 16:12 | 42.67766 | -2.86842 | 18975 ft | 408 kts | 1° |
| 2026-05-08 16:12 | 42.70586 | -2.86845 | 18496 ft | 404 kts | 354° |
| 2026-05-08 16:12 | 42.73343 | -2.87491 | 17974 ft | 400 kts | 343° |
| 2026-05-08 16:12 | 42.75941 | -2.88771 | 17464 ft | 394 kts | 333° |
| 2026-05-08 16:13 | 42.78337 | -2.90535 | 16968 ft | 389 kts | 328° |
| 2026-05-08 16:13 | 42.80679 | -2.92348 | 16487 ft | 385 kts | 328° |
| 2026-05-08 16:13 | 42.83004 | -2.94145 | 15967 ft | 382 kts | 328° |
| 2026-05-08 16:13 | 42.85315 | -2.95929 | 15467 ft | 380 kts | 328° |
| 2026-05-08 16:14 | 42.87613 | -2.97704 | 15025 ft | 381 kts | 329° |
| 2026-05-08 16:14 | 42.89927 | -2.99494 | 14895 ft | 383 kts | 328° |
| 2026-05-08 16:14 | 42.92252 | -3.01296 | 14918 ft | 384 kts | 328° |